Strona główna
METAR-TAF:

METAR-TAF

Lotnisko :

Port lotniczy Saragossa

Saragossa, Hiszpania

Szerokość geograficzna: 41-40N, Długość geograficzna: 001-01W, wysokość: 263 m

Aktualna obserwacja pogody

Raport powstał 40 minut temu, godzina 03:00 UTC
Wiatr 8 kt od południowy zachód
Temperatura 12°C
Wilgotność 71%
Ciśnienie 1023 hPa
Widzialność 10 km lub więcej
Brak chmur poniżej 1500 m i brak chmur cumulonimbus

METAR: LEZG 240300Z 22008KT CAVOK 12/07 Q1023

czas: 05:40 (03:40 UTC)

Prognoza

Raport powstał 4 godziny i 40 minut temu, godzina 23:00 UTC
Prognoza ważna od 24 godzina 00 UTC do 24 godzina 24 UTC
Wiatr 9 kt od południowy zachód
Widzialność 10 km lub więcej
Mało chmury na wysokości 6000 ft
Przejściowo
od 24 godzina 06 UTC do 24 godzina 24 UTC
Wiatr 15 kt od zachodnio-południowy zachód w porywach dochodzący do 28 kt

TAF: LEZG 232300Z 2400/2424 23009KT 9999 FEW060 TX22/2414Z TN10/2406Z TEMPO 2406/2424 24015G28KT

Obserwacja i prognoza pogody dla ponad 4000 lotnisk (raport METAR i TAF).

Dostępne stacje oznaczono żółtymi i czerwonymi punktami na mapie.

Najedź kursorem aby zobaczyć nazwę stacji.

Kliknij aby zobaczyć obserwacje i prognozy pogody.

Aby zmienić mapę: kliknij na zielony przycisk z czarnym krzyżykiem, aby powiększyć; na zielony przycisk z myślnikiem, aby pomniejszyć; na zielone strzałki, aby przejść do map sąsiednich.


METAR-TAF: